createdAt,value
2022-11-05T00:00:03.213Z,1009.66
2022-11-05T00:01:15.686Z,1009.72
2022-11-05T00:02:08.838Z,1009.73
2022-11-05T00:03:03.165Z,1009.71
2022-11-05T00:04:30.620Z,1009.76
2022-11-05T00:05:31.488Z,1009.78
2022-11-05T00:06:22.208Z,1009.76
2022-11-05T00:07:18.401Z,1009.80
2022-11-05T00:08:31.971Z,1009.85
2022-11-05T00:34:16.206Z,1010.12
2022-11-05T00:34:35.548Z,1010.14
2022-11-05T00:35:54.905Z,1010.14
2022-11-05T00:36:44.740Z,1010.11
2022-11-05T00:37:45.675Z,1010.09
2022-11-05T00:39:23.426Z,1010.09
2022-11-05T00:40:02.832Z,1010.13
2022-11-05T00:40:52.192Z,1010.18
2022-11-05T00:41:53.663Z,1010.11
2022-11-05T00:42:55.283Z,1010.17
2022-11-05T00:50:55.799Z,1010.17
2022-11-05T00:56:30.859Z,1010.23
2022-11-05T00:57:30.968Z,1010.26
2022-11-05T00:58:36.251Z,1010.27
2022-11-05T01:00:47.475Z,1010.24
2022-11-05T01:01:35.531Z,1010.29
2022-11-05T01:03:18.861Z,1010.30
2022-11-05T01:03:37.877Z,1010.27
2022-11-05T01:04:30.463Z,1010.30
2022-11-05T01:05:27.095Z,1010.36
2022-11-05T01:06:44.791Z,1010.37
2022-11-05T01:07:31.109Z,1010.36
2022-11-05T01:08:44.073Z,1010.36
2022-11-05T01:21:41.528Z,1010.22
2022-11-05T01:22:40.418Z,1010.26
2022-11-05T01:23:33.234Z,1010.30
2022-11-05T01:24:42.443Z,1010.33
2022-11-05T01:25:53.744Z,1010.33
2022-11-05T01:26:35.109Z,1010.31
2022-11-05T01:27:36.813Z,1010.30
2022-11-05T01:28:30.190Z,1010.33
2022-11-05T01:29:34.663Z,1010.33
2022-11-05T01:31:00.572Z,1010.32
2022-11-05T01:31:31.158Z,1010.33
2022-11-05T01:32:25.567Z,1010.38
2022-11-05T01:35:36.993Z,1010.30
2022-11-05T01:36:01.223Z,1010.34
2022-11-05T01:37:03.420Z,1010.30
2022-11-05T01:37:59.879Z,1010.32
2022-11-05T01:44:39.284Z,1010.35
2022-11-05T01:45:50.849Z,1010.31
2022-11-05T01:46:48.422Z,1010.34
2022-11-05T01:47:54.701Z,1010.35
2022-11-05T01:48:42.906Z,1010.38
2022-11-05T01:50:15.368Z,1010.33
2022-11-05T01:50:40.679Z,1010.33
2022-11-05T01:51:35.712Z,1010.36
2022-11-05T01:52:40.636Z,1010.31
2022-11-05T01:53:37.489Z,1010.37
2022-11-05T01:54:41.995Z,1010.36
2022-11-05T01:56:14.214Z,1010.38
2022-11-05T01:56:37.101Z,1010.41
2022-11-05T01:57:46.527Z,1010.37
2022-11-05T01:58:53.601Z,1010.47
2022-11-05T02:00:25.024Z,1010.46
2022-11-05T02:00:35.431Z,1010.49
2022-11-05T02:02:03.427Z,1010.43
2022-11-05T02:02:40.383Z,1010.44
2022-11-05T02:03:59.938Z,1010.44
2022-11-05T02:04:51.868Z,1010.47
2022-11-05T02:05:56.735Z,1010.50
2022-11-05T02:06:41.656Z,1010.52
2022-11-05T02:07:37.966Z,1010.49
2022-11-05T02:08:55.708Z,1010.42
2022-11-05T02:09:35.120Z,1010.43
2022-11-05T02:10:56.368Z,1010.46
2022-11-05T02:11:39.990Z,1010.41
2022-11-05T02:12:39.395Z,1010.49
2022-11-05T02:13:46.095Z,1010.45
2022-11-05T02:14:35.543Z,1010.45
2022-11-05T02:15:53.964Z,1010.47
2022-11-05T02:16:41.712Z,1010.42
2022-11-05T02:17:36.252Z,1010.44
2022-11-05T02:18:35.832Z,1010.49
2022-11-05T02:19:34.344Z,1010.55
2022-11-05T02:20:49.397Z,1010.49
2022-11-05T02:21:34.268Z,1010.52
2022-11-05T02:26:38.035Z,1010.48
2022-11-05T02:27:51.199Z,1010.49
2022-11-05T02:29:09.582Z,1010.53
2022-11-05T02:29:45.532Z,1010.51
2022-11-05T02:30:40.819Z,1010.48
2022-11-05T02:31:57.250Z,1010.54
2022-11-05T02:32:51.156Z,1010.55
2022-11-05T02:34:07.704Z,1010.56
2022-11-05T02:34:39.680Z,1010.51
2022-11-05T02:35:43.943Z,1010.53
2022-11-05T02:37:20.719Z,1010.50
2022-11-05T02:37:50.404Z,1010.55
2022-11-05T02:38:43.646Z,1010.54
2022-11-05T02:40:08.890Z,1010.53
2022-11-05T02:40:50.114Z,1010.50
2022-11-05T02:41:39.335Z,1010.54
2022-11-05T02:42:55.777Z,1010.50
2022-11-05T02:43:43.560Z,1010.48
2022-11-05T02:44:57.393Z,1010.50
2022-11-05T02:46:12.281Z,1010.49
2022-11-05T02:46:47.939Z,1010.51
2022-11-05T02:48:20.134Z,1010.52
2022-11-05T02:48:58.907Z,1010.49
2022-11-05T02:49:46.619Z,1010.51
2022-11-05T02:50:44.880Z,1010.55
2022-11-05T02:51:54.532Z,1010.53
2022-11-05T02:52:57.947Z,1010.54
2022-11-05T02:56:20.368Z,1010.44
2022-11-05T02:57:57.589Z,1010.45
2022-11-05T02:58:17.327Z,1010.51
2022-11-05T02:59:10.139Z,1010.51
2022-11-05T03:00:12.239Z,1010.56
2022-11-05T03:01:19.638Z,1010.53
2022-11-05T03:02:07.802Z,1010.49
2022-11-05T03:03:17.409Z,1010.50
2022-11-05T03:04:04.816Z,1010.48
2022-11-05T03:05:25.583Z,1010.45
2022-11-05T03:06:45.186Z,1010.46
2022-11-05T03:07:19.535Z,1010.47
2022-11-05T03:08:05.493Z,1010.56
2022-11-05T03:09:03.175Z,1010.59
2022-11-05T03:10:03.220Z,1010.58
2022-11-05T03:11:03.269Z,1010.57
2022-11-05T03:12:03.254Z,1010.62
2022-11-05T03:13:03.269Z,1010.59
2022-11-05T03:14:03.112Z,1010.57
2022-11-05T03:15:03.162Z,1010.60
2022-11-05T03:16:03.293Z,1010.59
2022-11-05T03:17:03.227Z,1010.60
2022-11-05T03:18:03.109Z,1010.59
2022-11-05T03:19:03.123Z,1010.66
2022-11-05T03:20:03.277Z,1010.67
2022-11-05T03:21:03.102Z,1010.70
2022-11-05T03:22:03.169Z,1010.69
2022-11-05T03:23:03.313Z,1010.71
2022-11-05T03:24:09.715Z,1010.68
2022-11-05T03:25:03.236Z,1010.69
2022-11-05T03:26:03.094Z,1010.75
2022-11-05T03:27:03.002Z,1010.70
2022-11-05T03:28:03.036Z,1010.70
2022-11-05T03:29:03.048Z,1010.69
2022-11-05T03:30:03.063Z,1010.73
2022-11-05T03:31:02.954Z,1010.73
2022-11-05T03:32:03.043Z,1010.74
2022-11-05T03:33:02.987Z,1010.81
2022-11-05T03:34:03.266Z,1010.82
2022-11-05T03:35:02.942Z,1010.89
2022-11-05T03:36:02.919Z,1010.85
2022-11-05T03:37:02.956Z,1010.86
2022-11-05T03:38:03.807Z,1010.89
2022-11-05T03:39:02.902Z,1010.87
2022-11-05T03:40:03.107Z,1010.88
2022-11-05T03:41:03.044Z,1010.93
2022-11-05T03:42:02.897Z,1010.96
2022-11-05T03:43:02.791Z,1010.96
2022-11-05T03:44:02.847Z,1010.96
2022-11-05T03:45:02.900Z,1010.94
2022-11-05T03:46:02.819Z,1010.97
2022-11-05T03:47:03.007Z,1010.96
2022-11-05T03:48:02.847Z,1010.98
2022-11-05T03:49:03.006Z,1011.02
2022-11-05T03:50:02.834Z,1011.00
2022-11-05T03:51:02.868Z,1010.98
2022-11-05T03:52:02.697Z,1010.97
2022-11-05T03:53:02.653Z,1010.98
2022-11-05T03:54:02.726Z,1011.00
2022-11-05T03:55:15.572Z,1011.03
2022-11-05T03:56:06.948Z,1011.01
2022-11-05T03:57:18.711Z,1010.99
2022-11-05T03:58:17.457Z,1011.00
2022-11-05T03:59:15.202Z,1010.99
2022-11-05T04:00:18.873Z,1011.01
2022-11-05T04:01:28.697Z,1011.02
2022-11-05T04:02:09.111Z,1011.04
2022-11-05T04:03:20.564Z,1011.01
2022-11-05T04:04:19.156Z,1011.01
2022-11-05T04:05:38.573Z,1011.02
2022-11-05T04:06:24.421Z,1011.08
2022-11-05T04:07:22.288Z,1011.06
2022-11-05T04:15:32.221Z,1010.96
2022-11-05T04:16:41.187Z,1011.06
2022-11-05T04:17:59.395Z,1011.06
2022-11-05T04:18:30.368Z,1011.07
2022-11-05T04:19:38.112Z,1011.04
2022-11-05T04:20:49.072Z,1011.03
2022-11-05T04:21:40.410Z,1011.04
2022-11-05T04:22:49.664Z,1011.05
2022-11-05T04:23:39.311Z,1011.06
2022-11-05T04:24:36.377Z,1011.04
2022-11-05T04:25:31.415Z,1011.09
2022-11-05T04:26:32.249Z,1011.16
2022-11-05T04:27:40.941Z,1011.10
2022-11-05T04:28:48.907Z,1011.14
2022-11-05T04:29:35.111Z,1011.15
2022-11-05T04:43:34.648Z,1011.15
2022-11-05T04:44:49.261Z,1011.18
2022-11-05T04:45:43.689Z,1011.22
2022-11-05T04:46:46.647Z,1011.30
2022-11-05T04:47:54.261Z,1011.27
2022-11-05T04:48:40.851Z,1011.29
2022-11-05T04:49:32.467Z,1011.32
2022-11-05T04:51:03.784Z,1011.29
2022-11-05T04:51:39.271Z,1011.28
2022-11-05T04:52:46.011Z,1011.26
2022-11-05T04:53:44.456Z,1011.27
2022-11-05T04:54:36.430Z,1011.29
2022-11-05T04:55:42.165Z,1011.32
2022-11-05T04:58:21.896Z,1011.28
2022-11-05T04:59:15.849Z,1011.29
2022-11-05T05:00:13.910Z,1011.29
2022-11-05T05:01:06.657Z,1011.28
2022-11-05T05:02:05.355Z,1011.29
2022-11-05T05:03:03.099Z,1011.30
2022-11-05T05:04:06.859Z,1011.26
2022-11-05T05:05:11.721Z,1011.33
2022-11-05T05:06:03.897Z,1011.32
2022-11-05T05:07:02.673Z,1011.32
2022-11-05T05:08:19.456Z,1011.34
2022-11-05T05:09:09.405Z,1011.35
2022-11-05T05:09:58.363Z,1011.35
2022-11-05T05:11:12.527Z,1011.39
2022-11-05T05:56:56.861Z,1011.64
2022-11-05T05:57:16.427Z,1011.73
2022-11-05T05:58:20.324Z,1011.72
2022-11-05T05:59:21.807Z,1011.65
2022-11-05T06:00:10.458Z,1011.70
2022-11-05T06:01:05.743Z,1011.65
2022-11-05T06:02:06.058Z,1011.73
2022-11-05T06:03:44.980Z,1011.70
2022-11-05T06:04:20.282Z,1011.74
2022-11-05T06:05:11.000Z,1011.73
2022-11-05T06:06:07.825Z,1011.75
2022-11-05T06:07:04.374Z,1011.71
2022-11-05T06:08:19.175Z,1011.78
2022-11-05T06:09:17.147Z,1011.81
2022-11-05T06:10:27.547Z,1011.81
2022-11-05T06:11:16.791Z,1011.80
2022-11-05T06:12:18.449Z,1011.86
2022-11-05T06:13:05.813Z,1011.88
2022-11-05T06:14:25.462Z,1011.87
2022-11-05T06:15:13.300Z,1011.81
2022-11-05T06:16:13.712Z,1011.80
2022-11-05T06:17:09.525Z,1011.82
2022-11-05T06:18:09.506Z,1011.88
2022-11-05T06:19:14.458Z,1011.86
2022-11-05T06:20:03.936Z,1011.84
2022-11-05T06:21:22.718Z,1011.88
2022-11-05T06:22:09.168Z,1011.92
2022-11-05T06:23:17.323Z,1011.86
2022-11-05T06:24:14.734Z,1011.88
2022-11-05T06:25:11.660Z,1011.87
2022-11-05T06:26:29.834Z,1011.86
2022-11-05T06:27:19.829Z,1011.91
2022-11-05T06:28:05.024Z,1011.97
2022-11-05T06:29:09.017Z,1012.00
2022-11-05T06:30:07.883Z,1012.01
2022-11-05T06:31:14.582Z,1012.08
2022-11-05T06:32:08.414Z,1012.06
2022-11-05T06:33:17.001Z,1012.05
2022-11-05T06:34:05.079Z,1012.12
2022-11-05T06:35:11.354Z,1012.12
2022-11-05T06:36:04.265Z,1012.11
2022-11-05T06:37:06.850Z,1012.07
2022-11-05T06:38:07.974Z,1012.11
2022-11-05T06:39:10.226Z,1012.12
2022-11-05T06:40:04.904Z,1012.15
2022-11-05T06:41:10.216Z,1012.15
2022-11-05T06:43:13.716Z,1012.13
2022-11-05T06:44:19.907Z,1012.12
2022-11-05T06:45:17.130Z,1012.13
2022-11-05T06:46:09.149Z,1012.14
2022-11-05T06:47:12.570Z,1012.09
2022-11-05T06:48:23.414Z,1012.10
2022-11-05T06:49:07.825Z,1012.14
2022-11-05T06:50:04.652Z,1012.17
2022-11-05T06:51:10.695Z,1012.20
2022-11-05T06:52:13.536Z,1012.19
2022-11-05T06:53:03.537Z,1012.18
2022-11-05T06:54:01.466Z,1012.25
2022-11-05T06:55:03.115Z,1012.25
2022-11-05T06:56:02.532Z,1012.27
2022-11-05T06:57:02.137Z,1012.30
2022-11-05T06:58:08.517Z,1012.27
2022-11-05T06:59:18.147Z,1012.22
2022-11-05T07:00:54.390Z,1012.24
2022-11-05T07:01:49.813Z,1012.23
2022-11-05T07:02:30.858Z,1012.23
2022-11-05T07:03:18.024Z,1012.28
2022-11-05T07:04:26.872Z,1012.27
2022-11-05T07:05:17.222Z,1012.27
2022-11-05T07:06:21.944Z,1012.31
2022-11-05T07:07:36.789Z,1012.30
2022-11-05T07:08:15.720Z,1012.32
2022-11-05T07:09:18.118Z,1012.36
2022-11-05T07:10:26.238Z,1012.28
2022-11-05T07:11:33.942Z,1012.33
2022-11-05T07:12:07.064Z,1012.37
2022-11-05T07:13:09.872Z,1012.37
2022-11-05T07:14:14.260Z,1012.37
2022-11-05T07:15:17.959Z,1012.35
2022-11-05T07:16:41.737Z,1012.40
2022-11-05T07:24:57.757Z,1012.48
2022-11-05T07:26:05.611Z,1012.56
2022-11-05T07:26:51.349Z,1012.54
2022-11-05T07:27:47.386Z,1012.55
2022-11-05T07:28:45.471Z,1012.52
2022-11-05T07:29:49.471Z,1012.57
2022-11-05T07:30:51.385Z,1012.59
2022-11-05T07:31:55.394Z,1012.57
2022-11-05T07:32:53.301Z,1012.57
2022-11-05T07:33:57.013Z,1012.58
2022-11-05T07:35:09.215Z,1012.55
2022-11-05T07:35:53.930Z,1012.57
2022-11-05T07:36:57.780Z,1012.53
2022-11-05T07:37:49.906Z,1012.54
2022-11-05T07:39:00.320Z,1012.55
2022-11-05T07:39:57.104Z,1012.53
2022-11-05T07:41:25.765Z,1012.57
2022-11-05T07:42:00.417Z,1012.56
2022-11-05T07:42:55.175Z,1012.60
2022-11-05T07:43:57.001Z,1012.56
2022-11-05T07:45:08.129Z,1012.61
2022-11-05T07:46:34.942Z,1012.60
2022-11-05T07:46:59.418Z,1012.58
2022-11-05T07:47:47.940Z,1012.58
2022-11-05T07:48:55.886Z,1012.60
2022-11-05T07:49:53.377Z,1012.60
2022-11-05T07:50:59.742Z,1012.62
2022-11-05T07:51:58.644Z,1012.67
2022-11-05T07:52:59.209Z,1012.64
2022-11-05T07:53:58.176Z,1012.60
2022-11-05T07:54:55.708Z,1012.61
2022-11-05T07:55:51.604Z,1012.58
2022-11-05T07:56:48.645Z,1012.56
2022-11-05T07:57:59.744Z,1012.57
2022-11-05T07:58:54.329Z,1012.52
2022-11-05T07:59:57.717Z,1012.55
2022-11-05T08:00:51.492Z,1012.54
2022-11-05T08:02:23.872Z,1012.53
2022-11-05T08:03:02.126Z,1012.58
2022-11-05T08:03:51.335Z,1012.58
2022-11-05T08:04:59.203Z,1012.59
2022-11-05T08:05:45.799Z,1012.59
2022-11-05T08:06:42.968Z,1012.59
2022-11-05T08:07:45.323Z,1012.62
2022-11-05T08:08:51.125Z,1012.64
2022-11-05T08:09:57.287Z,1012.66
2022-11-05T08:11:39.675Z,1012.60
2022-11-05T08:12:02.435Z,1012.71
2022-11-05T08:13:13.442Z,1012.71
2022-11-05T08:14:03.113Z,1012.66
2022-11-05T08:14:54.940Z,1012.69
2022-11-05T08:15:50.766Z,1012.63
2022-11-05T08:16:53.492Z,1012.61
2022-11-05T08:17:51.302Z,1012.62
2022-11-05T08:18:54.467Z,1012.64
2022-11-05T08:20:04.016Z,1012.66
2022-11-05T08:20:45.739Z,1012.58
2022-11-05T08:22:03.906Z,1012.60
2022-11-05T08:22:57.234Z,1012.61
2022-11-05T08:33:42.834Z,1012.64
2022-11-05T08:34:35.779Z,1012.65
2022-11-05T08:35:37.981Z,1012.65
2022-11-05T08:36:34.654Z,1012.63
2022-11-05T08:37:34.885Z,1012.66
2022-11-05T08:38:34.865Z,1012.68
2022-11-05T08:39:34.873Z,1012.73
2022-11-05T08:40:34.881Z,1012.66
2022-11-05T08:41:34.891Z,1012.67
2022-11-05T08:42:34.597Z,1012.71
2022-11-05T08:43:34.899Z,1012.67
2022-11-05T08:44:34.581Z,1012.68
2022-11-05T08:45:34.748Z,1012.68
2022-11-05T08:46:41.285Z,1012.70
2022-11-05T08:47:42.394Z,1012.70
2022-11-05T08:48:35.621Z,1012.72
2022-11-05T08:49:36.900Z,1012.65
2022-11-05T08:50:44.101Z,1012.71
2022-11-05T08:51:45.543Z,1012.69
2022-11-05T08:52:34.679Z,1012.68
2022-11-05T08:53:35.491Z,1012.74
2022-11-05T08:54:36.277Z,1012.72
2022-11-05T08:55:43.709Z,1012.72
2022-11-05T08:57:04.373Z,1012.76
2022-11-05T08:57:51.744Z,1012.78
2022-11-05T08:58:36.291Z,1012.81
2022-11-05T08:59:57.479Z,1012.80
2022-11-05T09:00:50.392Z,1012.84
2022-11-05T09:01:41.619Z,1012.82
2022-11-05T09:02:38.396Z,1012.82
2022-11-05T09:03:35.179Z,1012.85
2022-11-05T09:04:44.362Z,1012.88
2022-11-05T09:05:42.124Z,1012.89
2022-11-05T09:06:36.069Z,1012.86
2022-11-05T09:07:46.536Z,1012.87
2022-11-05T09:08:40.933Z,1012.84
2022-11-05T09:09:41.159Z,1012.81
2022-11-05T09:10:53.822Z,1012.82
2022-11-05T09:12:05.744Z,1012.84
2022-11-05T09:12:37.660Z,1012.83
2022-11-05T09:13:54.312Z,1012.86
2022-11-05T09:14:37.198Z,1012.79
2022-11-05T09:15:51.879Z,1012.77
2022-11-05T09:16:36.363Z,1012.78
2022-11-05T09:18:05.068Z,1012.82
2022-11-05T09:18:38.630Z,1012.77
2022-11-05T09:19:54.318Z,1012.85
2022-11-05T09:20:43.252Z,1012.79
2022-11-05T09:21:39.146Z,1012.79
2022-11-05T09:22:43.500Z,1012.79
2022-11-05T09:23:37.823Z,1012.83
2022-11-05T09:24:34.925Z,1012.78
2022-11-05T09:25:36.507Z,1012.76
2022-11-05T09:26:35.515Z,1012.81
2022-11-05T09:27:39.379Z,1012.80
2022-11-05T09:28:36.824Z,1012.80
2022-11-05T09:29:43.489Z,1012.83
2022-11-05T09:30:36.406Z,1012.83
2022-11-05T09:31:42.758Z,1012.81
2022-11-05T09:32:41.586Z,1012.88
2022-11-05T09:33:42.676Z,1012.86
2022-11-05T09:34:57.641Z,1012.86
2022-11-05T09:35:36.800Z,1012.90
2022-11-05T09:36:51.441Z,1012.93
2022-11-05T09:37:55.550Z,1012.99
2022-11-05T09:38:42.162Z,1012.97
2022-11-05T09:39:40.886Z,1012.97
2022-11-05T09:40:43.854Z,1012.98
2022-11-05T09:41:36.425Z,1012.99
2022-11-05T09:42:41.938Z,1013.01
2022-11-05T09:43:36.731Z,1013.03
2022-11-05T09:44:48.050Z,1013.03
2022-11-05T09:45:40.553Z,1012.94
2022-11-05T09:46:39.082Z,1013.03
2022-11-05T09:47:37.474Z,1013.04
2022-11-05T09:48:36.855Z,1012.99
2022-11-05T09:49:34.799Z,1013.07
2022-11-05T09:50:38.362Z,1013.05
2022-11-05T09:51:45.311Z,1013.07
2022-11-05T09:52:35.888Z,1013.05
2022-11-05T09:53:38.010Z,1013.07
2022-11-05T09:54:42.403Z,1013.05
2022-11-05T09:55:52.023Z,1013.11
2022-11-05T09:56:42.578Z,1013.09
2022-11-05T09:57:40.125Z,1013.13
2022-11-05T09:58:56.218Z,1013.18
2022-11-05T09:59:36.233Z,1013.20
2022-11-05T10:00:34.598Z,1013.16
2022-11-05T10:01:35.653Z,1013.21
2022-11-05T10:02:41.503Z,1013.24
2022-11-05T10:03:41.287Z,1013.26
2022-11-05T10:04:41.913Z,1013.26
2022-11-05T10:05:42.273Z,1013.27
2022-11-05T10:06:47.158Z,1013.27
2022-11-05T10:07:38.737Z,1013.28
2022-11-05T10:08:33.859Z,1013.32
2022-11-05T10:09:51.449Z,1013.33
2022-11-05T10:10:41.149Z,1013.32
2022-11-05T10:11:42.064Z,1013.39
2022-11-05T10:12:35.560Z,1013.39
2022-11-05T10:13:36.324Z,1013.39
2022-11-05T10:14:46.985Z,1013.40
2022-11-05T10:15:39.341Z,1013.38
2022-11-05T10:16:35.660Z,1013.38
2022-11-05T10:17:39.223Z,1013.41
2022-11-05T10:18:59.166Z,1013.39
2022-11-05T10:19:35.737Z,1013.41
2022-11-05T10:20:43.105Z,1013.40
2022-11-05T10:22:49.339Z,1013.44
2022-11-05T10:23:39.760Z,1013.44
2022-11-05T10:24:41.061Z,1013.46
2022-11-05T10:25:45.849Z,1013.40
2022-11-05T10:26:41.098Z,1013.47
2022-11-05T10:27:51.302Z,1013.46
2022-11-05T10:28:37.124Z,1013.49
2022-11-05T10:29:45.700Z,1013.48
2022-11-05T10:30:38.821Z,1013.48
2022-11-05T10:31:42.002Z,1013.46
2022-11-05T10:32:41.302Z,1013.49
2022-11-05T10:33:34.458Z,1013.51
2022-11-05T10:34:37.664Z,1013.53
2022-11-05T10:35:36.514Z,1013.50
2022-11-05T10:36:36.797Z,1013.48
2022-11-05T10:37:41.271Z,1013.44
2022-11-05T10:38:57.671Z,1013.51
2022-11-05T10:39:36.233Z,1013.54
2022-11-05T10:40:34.395Z,1013.57
2022-11-05T10:41:40.301Z,1013.51
2022-11-05T10:42:37.645Z,1013.57
2022-11-05T10:43:43.937Z,1013.44
2022-11-05T10:44:35.196Z,1013.48
2022-11-05T10:45:48.023Z,1013.45
2022-11-05T10:46:54.464Z,1013.45
2022-11-05T10:47:39.554Z,1013.43
2022-11-05T10:48:43.657Z,1013.46
2022-11-05T10:49:44.947Z,1013.42
2022-11-05T10:52:05.073Z,1013.39
2022-11-05T10:53:16.590Z,1013.48
2022-11-05T10:54:02.275Z,1013.47
2022-11-05T10:55:10.331Z,1013.49
2022-11-05T10:55:59.884Z,1013.54
2022-11-05T10:56:58.334Z,1013.54
2022-11-05T10:58:05.391Z,1013.52
2022-11-05T10:59:07.944Z,1013.50
2022-11-05T11:00:10.113Z,1013.56
2022-11-05T11:01:06.919Z,1013.64
2022-11-05T11:02:10.401Z,1013.62
2022-11-05T11:03:00.292Z,1013.62
2022-11-05T11:04:10.309Z,1013.62
2022-11-05T11:05:02.090Z,1013.51
2022-11-05T11:06:08.388Z,1013.50
2022-11-05T11:07:01.770Z,1013.52
2022-11-05T11:07:59.004Z,1013.56
2022-11-05T11:09:22.751Z,1013.53
2022-11-05T11:09:58.418Z,1013.52
2022-11-05T11:11:20.327Z,1013.49
2022-11-05T11:11:57.800Z,1013.53
2022-11-05T11:13:06.462Z,1013.52
2022-11-05T11:14:04.111Z,1013.58
2022-11-05T11:15:13.724Z,1013.58
2022-11-05T11:16:13.514Z,1013.53
2022-11-05T11:17:04.110Z,1013.57
2022-11-05T11:18:28.041Z,1013.60
2022-11-05T11:19:10.384Z,1013.57
2022-11-05T11:20:19.390Z,1013.61
2022-11-05T11:21:16.301Z,1013.61
2022-11-05T11:22:08.584Z,1013.60
2022-11-05T11:23:10.959Z,1013.67
2022-11-05T11:24:05.144Z,1013.61
2022-11-05T11:25:03.520Z,1013.63
2022-11-05T11:26:04.830Z,1013.62
2022-11-05T11:27:02.691Z,1013.67
2022-11-05T11:28:05.087Z,1013.63
2022-11-05T11:28:57.747Z,1013.59
2022-11-05T11:30:05.226Z,1013.58
2022-11-05T11:31:06.916Z,1013.61
2022-11-05T11:32:07.713Z,1013.67
2022-11-05T11:32:59.270Z,1013.56
2022-11-05T11:34:17.576Z,1013.56
2022-11-05T11:35:16.382Z,1013.58
2022-11-05T11:36:18.196Z,1013.56
2022-11-05T11:37:03.639Z,1013.54
2022-11-05T11:38:26.202Z,1013.56
2022-11-05T11:39:27.785Z,1013.60
2022-11-05T11:40:00.366Z,1013.62
2022-11-05T11:41:00.935Z,1013.60
2022-11-05T11:42:03.030Z,1013.57
2022-11-05T11:43:02.271Z,1013.60
2022-11-05T11:44:00.545Z,1013.61
2022-11-05T11:45:07.293Z,1013.64
2022-11-05T11:46:06.064Z,1013.66
2022-11-05T11:47:03.446Z,1013.62
2022-11-05T11:47:57.224Z,1013.62
2022-11-05T11:49:06.769Z,1013.66
2022-11-05T11:50:01.548Z,1013.64
2022-11-05T11:51:06.716Z,1013.66
2022-11-05T11:52:05.950Z,1013.66
2022-11-05T11:53:04.308Z,1013.55
2022-11-05T11:57:01.438Z,1013.64
2022-11-05T11:58:00.881Z,1013.67
2022-11-05T11:59:01.297Z,1013.73
2022-11-05T12:00:13.128Z,1013.68
2022-11-05T12:01:12.454Z,1013.73
2022-11-05T12:02:10.663Z,1013.73
2022-11-05T12:03:02.618Z,1013.69
2022-11-05T12:04:07.511Z,1013.70
2022-11-05T12:04:58.047Z,1013.69
2022-11-05T12:06:02.369Z,1013.70
2022-11-05T12:07:04.200Z,1013.72
2022-11-05T12:08:09.719Z,1013.63
2022-11-05T12:09:07.186Z,1013.71
2022-11-05T12:10:12.199Z,1013.72
2022-11-05T12:11:02.706Z,1013.69
2022-11-05T12:12:23.879Z,1013.68
2022-11-05T12:13:14.754Z,1013.67
2022-11-05T12:14:06.363Z,1013.62
2022-11-05T12:15:02.870Z,1013.63
2022-11-05T12:16:02.123Z,1013.66
2022-11-05T12:16:59.710Z,1013.64
2022-11-05T12:18:07.739Z,1013.63
2022-11-05T12:19:09.544Z,1013.67
2022-11-05T12:20:09.381Z,1013.67
2022-11-05T12:21:07.108Z,1013.58
2022-11-05T12:22:06.941Z,1013.64
2022-11-05T12:23:12.589Z,1013.58
2022-11-05T12:24:05.698Z,1013.63
2022-11-05T12:25:05.156Z,1013.63
2022-11-05T12:26:12.838Z,1013.66
2022-11-05T12:27:02.550Z,1013.64
2022-11-05T12:28:04.684Z,1013.60
2022-11-05T12:29:18.527Z,1013.63
2022-11-05T12:30:04.952Z,1013.61
2022-11-05T12:31:06.592Z,1013.61
2022-11-05T12:32:02.446Z,1013.61
2022-11-05T12:33:08.574Z,1013.67
2022-11-05T12:34:00.494Z,1013.62
2022-11-05T12:34:58.632Z,1013.57
2022-11-05T12:35:58.055Z,1013.59
2022-11-05T12:36:57.999Z,1013.58
2022-11-05T12:38:25.001Z,1013.58
2022-11-05T12:39:15.503Z,1013.62
2022-11-05T12:40:01.078Z,1013.62
2022-11-05T12:41:02.034Z,1013.64
2022-11-05T12:47:08.778Z,1013.63
2022-11-05T12:47:55.079Z,1013.67
2022-11-05T12:48:58.166Z,1013.68
2022-11-05T12:49:57.876Z,1013.69
2022-11-05T12:51:00.272Z,1013.74
2022-11-05T12:52:00.126Z,1013.62
2022-11-05T12:53:00.911Z,1013.65
2022-11-05T12:53:55.855Z,1013.63
2022-11-05T12:54:55.277Z,1013.61
2022-11-05T12:56:00.453Z,1013.63
2022-11-05T12:56:55.515Z,1013.61
2022-11-05T12:58:15.462Z,1013.61
2022-11-05T13:00:38.009Z,1013.54
2022-11-05T13:01:42.744Z,1013.57
2022-11-05T13:02:50.002Z,1013.61
2022-11-05T13:03:42.469Z,1013.55
2022-11-05T13:04:53.647Z,1013.56
2022-11-05T13:08:30.393Z,1013.54
2022-11-05T13:08:59.397Z,1013.57
2022-11-05T13:10:25.683Z,1013.59
2022-11-05T13:11:00.908Z,1013.54
2022-11-05T13:12:09.301Z,1013.56
2022-11-05T13:13:03.340Z,1013.51
2022-11-05T13:14:09.432Z,1013.56
2022-11-05T13:15:24.037Z,1013.59
2022-11-05T13:16:06.357Z,1013.57
2022-11-05T13:17:06.147Z,1013.60
2022-11-05T13:18:13.683Z,1013.60
2022-11-05T13:20:55.968Z,1013.57
2022-11-05T13:21:58.905Z,1013.62
2022-11-05T13:22:58.044Z,1013.59
2022-11-05T13:24:06.202Z,1013.59
2022-11-05T13:25:13.354Z,1013.59
2022-11-05T13:25:53.125Z,1013.59
2022-11-05T13:28:55.858Z,1013.59
2022-11-05T13:29:43.216Z,1013.60
2022-11-05T13:30:43.841Z,1013.60
2022-11-05T13:32:35.229Z,1013.62
2022-11-05T13:33:50.961Z,1013.60
2022-11-05T13:34:37.386Z,1013.56
2022-11-05T13:35:33.915Z,1013.53
2022-11-05T13:36:55.148Z,1013.51
2022-11-05T13:37:35.410Z,1013.59
2022-11-05T13:38:43.038Z,1013.54
2022-11-05T13:39:33.207Z,1013.54
2022-11-05T13:40:39.308Z,1013.56
2022-11-05T13:41:37.211Z,1013.56
2022-11-05T13:42:34.828Z,1013.54
2022-11-05T13:43:32.171Z,1013.53
2022-11-05T13:44:41.776Z,1013.56
2022-11-05T13:45:36.110Z,1013.57
2022-11-05T13:46:37.471Z,1013.56
2022-11-05T13:47:50.896Z,1013.60
2022-11-05T13:49:08.901Z,1013.53
2022-11-05T13:49:39.175Z,1013.56
2022-11-05T13:50:39.045Z,1013.54
2022-11-05T13:51:41.748Z,1013.51
2022-11-05T13:55:00.424Z,1013.50
2022-11-05T13:55:39.687Z,1013.53
2022-11-05T13:56:35.682Z,1013.55
2022-11-05T13:57:58.009Z,1013.59
2022-11-05T13:58:45.149Z,1013.51
2022-11-05T13:59:34.199Z,1013.55
2022-11-05T14:00:37.772Z,1013.53
2022-11-05T14:01:47.632Z,1013.54
2022-11-05T14:02:39.223Z,1013.56
2022-11-05T14:03:51.595Z,1013.55
2022-11-05T14:04:43.887Z,1013.53
2022-11-05T14:05:39.571Z,1013.57
2022-11-05T14:06:44.067Z,1013.61
2022-11-05T14:07:42.842Z,1013.55
2022-11-05T14:08:47.928Z,1013.59
2022-11-05T14:09:38.840Z,1013.62
2022-11-05T14:10:35.987Z,1013.59
2022-11-05T14:11:46.486Z,1013.56
2022-11-05T14:12:41.645Z,1013.57
2022-11-05T14:13:35.945Z,1013.63
2022-11-05T14:14:44.068Z,1013.65
2022-11-05T14:15:50.604Z,1013.70
2022-11-05T14:16:42.915Z,1013.64
2022-11-05T14:17:39.015Z,1013.66
2022-11-05T14:18:38.261Z,1013.69
2022-11-05T14:19:50.079Z,1013.71
2022-11-05T14:20:44.990Z,1013.64
2022-11-05T14:21:42.836Z,1013.64
2022-11-05T14:22:53.871Z,1013.65
2022-11-05T14:23:53.682Z,1013.70
2022-11-05T14:25:50.734Z,1013.59
2022-11-05T14:27:05.067Z,1013.61
2022-11-05T14:27:51.508Z,1013.61
2022-11-05T14:28:59.095Z,1013.65
2022-11-05T14:30:15.915Z,1013.64
2022-11-05T14:30:57.943Z,1013.60
2022-11-05T14:32:13.834Z,1013.63
2022-11-05T14:32:56.543Z,1013.65
2022-11-05T14:33:57.339Z,1013.55
2022-11-05T14:34:57.850Z,1013.62
2022-11-05T14:35:54.731Z,1013.65
2022-11-05T14:37:02.640Z,1013.59
2022-11-05T14:37:59.104Z,1013.61
2022-11-05T14:38:57.755Z,1013.60
2022-11-05T14:39:50.399Z,1013.62
2022-11-05T14:43:21.048Z,1013.57
2022-11-05T14:44:15.403Z,1013.61
2022-11-05T14:45:19.754Z,1013.64
2022-11-05T14:46:11.861Z,1013.66
2022-11-05T14:47:13.442Z,1013.67
2022-11-05T14:48:08.643Z,1013.67
2022-11-05T14:49:17.020Z,1013.68
2022-11-05T14:50:16.223Z,1013.70
2022-11-05T14:51:14.796Z,1013.73
2022-11-05T14:52:20.867Z,1013.76
2022-11-05T14:53:18.808Z,1013.73
2022-11-05T14:54:29.144Z,1013.75
2022-11-05T14:55:20.280Z,1013.72
2022-11-05T14:56:13.964Z,1013.69
2022-11-05T14:57:12.517Z,1013.73